createdAt,value
2017-03-24T17:07:58.785Z,11.83
2017-03-24T17:08:39.404Z,11.77
2017-03-24T17:09:20.045Z,11.83
2017-03-24T17:10:00.713Z,11.8
2017-03-24T17:10:41.352Z,11.75
2017-03-24T17:11:22.003Z,11.66
2017-03-24T17:12:02.675Z,11.65
2017-03-24T17:12:43.325Z,11.72
2017-03-24T17:13:23.976Z,11.69
2017-03-24T17:14:04.611Z,11.63
2017-03-24T17:14:45.264Z,11.55
2017-03-24T17:15:25.909Z,11.65
2017-03-24T17:16:06.573Z,11.66
2017-03-24T17:16:47.222Z,11.54
2017-03-24T17:17:27.880Z,11.52
2017-03-24T17:18:08.529Z,11.57
2017-03-24T17:18:49.182Z,11.48
2017-03-24T17:19:29.834Z,11.51
2017-03-24T17:20:10.410Z,11.52
2017-03-24T17:20:50.985Z,11.54
2017-03-24T17:21:31.641Z,11.51
2017-03-24T17:22:12.243Z,11.55
2017-03-24T17:22:52.806Z,11.52
2017-03-24T17:23:33.391Z,11.41
2017-03-24T17:24:13.975Z,11.48
2017-03-24T17:24:54.569Z,11.4
2017-03-24T17:25:35.148Z,11.36
2017-03-24T17:26:15.755Z,11.3
2017-03-24T17:26:56.450Z,11.35
2017-03-24T17:27:37.057Z,11.26
2017-03-24T17:28:17.668Z,11.23
2017-03-24T17:28:58.287Z,11.26
2017-03-24T17:29:38.842Z,11.07
2017-03-24T17:30:19.588Z,11.12
2017-03-24T17:31:01.301Z,11.1
2017-03-24T17:31:41.896Z,11.05
2017-03-24T17:32:22.447Z,11.08
2017-03-24T17:33:04.083Z,11.15
2017-03-24T17:33:44.728Z,11.18
2017-03-24T17:34:30.067Z,11.14
2017-03-24T17:35:10.744Z,11.17
2017-03-24T17:35:51.508Z,11.1
2017-03-24T17:36:32.162Z,11.08
2017-03-24T17:37:12.858Z,11.04
2017-03-24T17:37:54.480Z,11.02
2017-03-24T17:38:35.133Z,10.97
2017-03-24T17:39:15.794Z,10.87
2017-03-24T17:39:56.447Z,10.86
2017-03-24T17:40:37.039Z,10.86
2017-03-24T17:41:17.627Z,10.82
2017-03-24T17:41:58.268Z,10.81
2017-03-24T17:42:38.956Z,10.89
2017-03-24T17:43:19.546Z,10.89
2017-03-24T17:44:00.133Z,10.78
2017-03-24T17:44:40.706Z,10.79
2017-03-24T17:45:21.315Z,10.74
2017-03-24T17:46:01.908Z,10.71
2017-03-24T17:46:42.490Z,10.75
2017-03-24T17:47:23.112Z,10.72
2017-03-24T17:48:03.726Z,10.67
2017-03-24T17:48:44.314Z,10.69
2017-03-24T17:49:24.894Z,10.64
2017-03-24T17:50:05.542Z,10.71
2017-03-24T17:50:46.235Z,10.68
2017-03-24T17:51:26.887Z,10.68
2017-03-24T17:52:07.526Z,10.54
2017-03-24T17:52:48.193Z,10.59
2017-03-24T17:53:28.850Z,10.61
2017-03-24T17:54:09.493Z,10.53
2017-03-24T17:54:51.178Z,10.61
2017-03-24T17:55:31.743Z,10.56
2017-03-24T17:56:12.349Z,10.56
2017-03-24T17:56:52.969Z,10.53
2017-03-24T17:57:33.545Z,10.57
2017-03-24T17:58:14.195Z,10.53
2017-03-24T17:58:54.828Z,10.44
2017-03-24T17:59:35.388Z,10.54
2017-03-24T18:00:16.061Z,10.37
2017-03-24T18:00:56.685Z,10.38
2017-03-24T18:01:37.274Z,10.35
2017-03-24T18:02:17.900Z,10.34
2017-03-24T18:02:58.546Z,10.33
2017-03-24T18:03:39.111Z,10.31
2017-03-24T18:04:19.765Z,10.33
2017-03-24T18:05:00.395Z,10.2
2017-03-24T18:05:41.052Z,10.22
2017-03-24T18:06:21.809Z,10.3
2017-03-24T18:07:02.457Z,10.22
2017-03-24T18:07:43.126Z,10.2
2017-03-24T18:08:23.760Z,10.4
2017-03-24T18:09:04.418Z,10.23
2017-03-24T18:09:45.067Z,10.26
2017-03-24T18:10:25.646Z,10.2
2017-03-24T18:11:06.303Z,10.19
2017-03-24T18:11:46.988Z,10.22
2017-03-24T18:12:27.579Z,10.25
2017-03-24T18:13:08.139Z,10.22
2017-03-24T18:13:48.799Z,10.12
2017-03-24T18:14:29.393Z,10.2
2017-03-24T18:15:09.986Z,10.16
2017-03-24T18:15:50.648Z,10.16
2017-03-24T18:16:31.289Z,10.1
2017-03-24T18:17:11.945Z,10.05
2017-03-24T18:17:52.596Z,10.09
2017-03-24T18:18:33.255Z,10.1
2017-03-24T18:19:13.903Z,10.12
2017-03-24T18:19:54.566Z,10.04
2017-03-24T18:20:35.149Z,9.99
2017-03-24T18:21:15.781Z,9.99
2017-03-24T18:21:56.434Z,10.01
2017-03-24T18:22:37.096Z,9.99
2017-03-24T18:23:17.719Z,10.05
2017-03-24T18:23:58.398Z,9.99
2017-03-24T18:24:39.086Z,9.98
2017-03-24T18:25:19.711Z,9.98
2017-03-24T18:26:00.384Z,9.97
2017-03-24T18:26:40.990Z,9.99
2017-03-24T18:27:21.587Z,9.94
2017-03-24T18:28:02.219Z,9.94
2017-03-24T18:28:42.900Z,9.84
2017-03-24T18:29:23.491Z,9.86
2017-03-24T18:30:04.099Z,9.91
2017-03-24T18:30:44.717Z,9.86
2017-03-24T18:31:25.393Z,9.84
2017-03-24T18:32:06.034Z,9.84
2017-03-24T18:32:46.723Z,9.84
2017-03-24T18:33:27.350Z,9.82
2017-03-24T18:34:08.011Z,9.79
2017-03-24T18:34:48.650Z,9.84
2017-03-24T18:35:29.287Z,9.83
2017-03-24T18:36:09.945Z,9.8
2017-03-24T18:36:50.632Z,9.79
2017-03-24T18:37:31.270Z,9.79
2017-03-24T18:38:11.907Z,9.77
2017-03-24T18:38:52.543Z,9.82
2017-03-24T18:39:33.196Z,9.84
2017-03-24T18:40:13.963Z,9.83
2017-03-24T18:40:54.641Z,9.92
2017-03-24T18:41:35.268Z,9.84
2017-03-24T18:42:15.916Z,9.86
2017-03-24T18:42:56.580Z,9.79
2017-03-24T18:43:37.294Z,9.8
2017-03-24T18:44:17.910Z,9.72
2017-03-24T18:44:58.600Z,9.69
2017-03-24T18:45:39.196Z,9.61
2017-03-24T18:46:19.798Z,9.64
2017-03-24T18:47:00.471Z,9.64
2017-03-24T18:47:41.040Z,9.72
2017-03-24T18:48:21.677Z,9.64
2017-03-24T18:49:02.313Z,9.62
2017-03-24T18:49:42.995Z,9.59
2017-03-24T18:50:23.891Z,9.68
2017-03-24T18:51:04.512Z,9.68
2017-03-24T18:51:45.211Z,9.68
2017-03-24T18:52:25.870Z,9.65
2017-03-24T18:53:06.471Z,9.65
2017-03-24T18:53:49.137Z,9.72
2017-03-24T18:54:29.790Z,9.58
2017-03-24T18:55:16.060Z,9.54
2017-03-24T18:55:57.692Z,9.51
2017-03-24T18:56:40.326Z,9.56
2017-03-24T18:57:20.901Z,9.51
2017-03-24T18:58:01.543Z,9.48
2017-03-24T18:58:42.234Z,9.48
2017-03-24T18:59:22.936Z,9.54
2017-03-24T19:00:03.508Z,9.62
2017-03-24T19:00:44.182Z,9.64
2017-03-24T19:01:25.838Z,9.65
2017-03-24T19:02:11.107Z,9.65
2017-03-24T19:02:51.760Z,9.64
2017-03-24T19:03:33.436Z,9.62
2017-03-24T19:04:14.097Z,9.54
2017-03-24T19:04:54.725Z,9.51
2017-03-24T19:05:35.394Z,9.54
2017-03-24T19:10:37.619Z,9.41
2017-03-24T19:11:18.318Z,9.43
2017-03-24T19:11:59.066Z,9.46
2017-03-24T19:12:39.840Z,9.43
2017-03-24T19:13:20.592Z,9.43
2017-03-24T19:14:01.366Z,9.44
2017-03-24T19:14:42.069Z,9.37
2017-03-24T19:15:22.857Z,9.29
2017-03-24T19:16:03.479Z,9.29
2017-03-24T19:16:44.129Z,9.28
2017-03-24T19:17:24.783Z,9.32
2017-03-24T19:18:05.435Z,9.39
2017-03-24T19:18:46.191Z,9.34
2017-03-24T19:19:26.845Z,9.23
2017-03-24T19:20:07.497Z,9.25
2017-03-24T19:20:48.101Z,9.25
2017-03-24T19:21:28.701Z,9.25
2017-03-24T19:22:09.310Z,9.28
2017-03-24T19:22:49.960Z,9.25
2017-03-24T19:23:30.554Z,9.25
2017-03-24T19:24:12.130Z,9.21
2017-03-24T19:24:52.784Z,9.21
2017-03-24T19:25:33.439Z,9.19
2017-03-24T19:26:13.986Z,9.21
2017-03-24T19:26:54.643Z,9.22
2017-03-24T19:27:35.395Z,9.28
2017-03-24T19:28:15.946Z,9.31
2017-03-24T19:28:56.601Z,9.23
2017-03-24T19:29:37.301Z,9.21
2017-03-24T19:30:17.882Z,9.21
2017-03-24T19:30:58.485Z,9.21
2017-03-24T19:31:39.209Z,9.14
2017-03-24T19:32:19.759Z,9.13
2017-03-24T19:33:00.416Z,9.08
2017-03-24T19:33:41.074Z,9.22
2017-03-24T19:34:21.796Z,9.21
2017-03-24T19:35:02.372Z,9.11
2017-03-24T19:35:43.126Z,9.18
2017-03-24T19:36:23.681Z,9.1
2017-03-24T19:37:04.339Z,9.08
2017-03-24T19:37:44.990Z,9.06
2017-03-24T19:38:25.545Z,9.02
2017-03-24T19:39:06.196Z,8.99
2017-03-24T19:39:46.847Z,8.89
2017-03-24T19:40:27.446Z,8.95
2017-03-24T19:41:08.050Z,8.94
2017-03-24T19:41:48.695Z,8.88
2017-03-24T19:42:29.246Z,8.84
2017-03-24T19:43:09.908Z,8.82
2017-03-24T19:43:50.557Z,8.81
2017-03-24T19:44:31.140Z,8.66
2017-03-24T19:45:11.788Z,8.7
2017-03-24T19:45:52.420Z,8.7
2017-03-24T19:46:33.069Z,8.69
2017-03-24T19:47:13.720Z,8.67
2017-03-24T19:47:54.375Z,8.66
2017-03-24T19:48:35.023Z,8.51
2017-03-24T19:49:15.673Z,8.53
2017-03-24T19:49:56.435Z,8.51
2017-03-24T19:50:38.517Z,8.52
2017-03-24T19:51:19.107Z,8.55
2017-03-24T19:51:59.726Z,8.51
2017-03-24T19:52:40.378Z,8.49
2017-03-24T19:53:21.034Z,8.52
2017-03-24T19:54:02.709Z,8.38
2017-03-24T19:54:43.362Z,8.48
2017-03-24T19:55:25.038Z,8.46
2017-03-24T19:56:05.687Z,8.46
2017-03-24T19:56:46.344Z,8.44
2017-03-24T19:57:26.997Z,8.55
2017-03-24T19:58:07.653Z,8.51
2017-03-24T19:58:48.302Z,8.55
2017-03-24T19:59:28.950Z,8.45
2017-03-24T20:00:10.627Z,8.48
2017-03-24T20:00:51.178Z,8.51
2017-03-24T20:01:32.777Z,8.53
2017-03-24T20:02:13.479Z,8.55
2017-03-24T20:02:54.262Z,8.52
2017-03-24T20:03:34.840Z,8.52
2017-03-24T20:04:15.489Z,8.45
2017-03-24T20:04:56.280Z,8.45
2017-03-24T20:05:36.875Z,8.49
2017-03-24T20:06:17.527Z,8.48
2017-03-24T20:06:59.206Z,8.49
2017-03-24T20:07:39.860Z,8.49
2017-03-24T20:08:20.518Z,8.41
2017-03-24T20:09:01.163Z,8.44
2017-03-24T20:09:42.846Z,8.42
2017-03-24T20:10:23.504Z,8.37
2017-03-24T20:11:04.556Z,8.31
2017-03-24T20:11:45.214Z,8.41
2017-03-24T20:12:26.885Z,8.37
2017-03-24T20:13:07.540Z,8.27
2017-03-24T20:13:48.194Z,8.24
2017-03-24T20:14:28.850Z,8.34
2017-03-24T20:15:09.503Z,8.24
2017-03-24T20:15:50.060Z,8.26
2017-03-24T20:16:30.721Z,8.15
2017-03-24T20:17:11.366Z,8.15
2017-03-24T20:17:51.927Z,8.1
2017-03-24T20:18:32.575Z,8.12
2017-03-24T20:19:13.211Z,8.16
2017-03-24T20:19:53.782Z,8.06
2017-03-24T20:20:34.437Z,8.09
2017-03-24T20:21:15.073Z,8.01
2017-03-24T20:21:55.664Z,8.08
2017-03-24T20:22:36.287Z,8.06
2017-03-24T20:23:16.926Z,8.03
2017-03-24T20:23:57.500Z,8.01
2017-03-24T20:24:38.078Z,7.98
2017-03-24T20:25:18.677Z,7.97
2017-03-24T20:25:59.252Z,7.95
2017-03-24T20:26:40.928Z,7.94
2017-03-24T20:27:21.527Z,7.95
2017-03-24T20:28:02.118Z,7.94
2017-03-24T20:28:42.692Z,8.09
2017-03-24T20:29:23.353Z,8.1
2017-03-24T20:30:03.928Z,8.09
2017-03-24T20:30:44.519Z,8.06
2017-03-24T20:31:25.081Z,8.05
2017-03-24T20:32:05.753Z,8.08
2017-03-24T20:32:46.325Z,8.08
2017-03-24T20:33:27.957Z,8.09
2017-03-24T20:34:08.510Z,8.1
2017-03-24T20:34:49.183Z,8.15
2017-03-24T20:35:29.792Z,8.18
2017-03-24T20:36:10.486Z,8.19
2017-03-24T20:36:51.039Z,8.18
2017-03-24T20:37:32.227Z,8.13
2017-03-24T20:38:12.901Z,8.15
2017-03-24T20:38:53.481Z,8.16
2017-03-24T20:39:34.058Z,8.12
2017-03-24T20:40:14.704Z,8.12
2017-03-24T20:40:55.460Z,8.09
2017-03-24T20:41:36.042Z,8.05
2017-03-24T20:42:16.670Z,8.13
2017-03-24T20:42:57.302Z,8.1
2017-03-24T20:43:37.871Z,8.09
2017-03-24T20:44:18.529Z,8.12
2017-03-24T20:44:59.157Z,8.09
2017-03-24T20:45:39.730Z,8.08
2017-03-24T20:46:20.369Z,8.13
2017-03-24T20:47:00.980Z,8.09
2017-03-24T20:47:41.666Z,8.03
2017-03-24T20:48:22.220Z,7.98
2017-03-24T20:49:02.871Z,7.98
2017-03-24T20:49:43.482Z,7.97
2017-03-24T20:50:25.100Z,7.95
2017-03-24T20:51:05.678Z,7.95
2017-03-24T20:51:46.358Z,8.01
2017-03-24T20:52:27.017Z,8.05
2017-03-24T20:53:07.628Z,8.03
2017-03-24T20:53:48.289Z,7.95
2017-03-24T20:54:28.929Z,8
2017-03-24T20:55:10.611Z,8.06
2017-03-24T20:55:52.292Z,7.95
2017-03-24T20:56:32.929Z,7.95
2017-03-24T20:57:13.676Z,8.01
2017-03-24T20:57:54.355Z,8.05
2017-03-24T20:58:35.001Z,8.01
2017-03-24T20:59:15.649Z,8
2017-03-24T20:59:56.312Z,7.93
2017-03-24T21:00:36.967Z,7.93
2017-03-24T21:01:17.542Z,7.93
2017-03-24T21:01:58.149Z,7.87
2017-03-24T21:02:38.725Z,7.97
2017-03-24T21:03:19.375Z,7.85
2017-03-24T21:03:59.955Z,7.91
2017-03-24T21:04:40.558Z,7.82
2017-03-24T21:05:21.108Z,7.9
2017-03-24T21:06:01.813Z,7.87
2017-03-24T21:06:43.492Z,7.88
2017-03-24T21:07:24.511Z,7.83
2017-03-24T21:08:05.190Z,7.79
2017-03-24T21:08:46.849Z,7.8
2017-03-24T21:09:28.512Z,7.79
2017-03-24T21:10:10.099Z,7.77
2017-03-24T21:10:50.753Z,7.79
2017-03-24T21:11:31.412Z,7.75
2017-03-24T21:12:12.060Z,7.73
2017-03-24T21:12:52.711Z,7.69
2017-03-24T21:13:33.368Z,7.69
2017-03-24T21:14:14.004Z,7.7
2017-03-24T21:14:55.599Z,7.56
2017-03-24T21:15:36.249Z,7.57
2017-03-24T21:16:16.942Z,7.56
2017-03-24T21:16:57.550Z,7.72
2017-03-24T21:17:38.204Z,7.66
2017-03-24T21:18:18.857Z,7.69
2017-03-24T21:18:59.508Z,7.69
2017-03-24T21:19:40.161Z,7.69
2017-03-24T21:20:20.856Z,7.7
2017-03-24T21:21:01.465Z,7.69
2017-03-24T21:21:42.150Z,7.63
2017-03-24T21:22:22.780Z,7.72
2017-03-24T21:23:03.428Z,7.61
2017-03-24T21:23:44.083Z,7.63
2017-03-24T21:24:24.738Z,7.63
2017-03-24T21:25:05.387Z,7.6
2017-03-24T21:25:46.027Z,7.66
2017-03-24T21:26:26.720Z,7.56
2017-03-24T21:27:07.315Z,7.56
2017-03-24T21:27:47.953Z,7.54
2017-03-24T21:28:28.544Z,7.53
2017-03-24T21:29:09.141Z,7.51
2017-03-24T21:29:49.727Z,7.45
2017-03-24T21:30:30.306Z,7.42
2017-03-24T21:31:10.958Z,7.43
2017-03-24T21:31:51.635Z,7.42
2017-03-24T21:32:32.232Z,7.42
2017-03-24T21:33:12.811Z,7.35
2017-03-24T21:33:53.465Z,7.32
2017-03-24T21:34:34.146Z,7.45
2017-03-24T21:35:14.741Z,7.39
2017-03-24T21:35:55.313Z,7.39
2017-03-24T21:36:35.973Z,7.38
2017-03-24T21:37:17.579Z,7.42
2017-03-24T21:37:58.179Z,7.4
2017-03-24T21:38:38.751Z,7.36
2017-03-24T21:39:19.400Z,7.43
2017-03-24T21:39:59.993Z,7.33
2017-03-24T21:40:40.585Z,7.4
2017-03-24T21:41:21.241Z,7.4
2017-03-24T21:42:01.832Z,7.36
2017-03-24T21:42:42.435Z,7.4
2017-03-24T21:43:23.095Z,7.47
2017-03-24T21:44:03.749Z,7.38
2017-03-24T21:44:44.397Z,7.43
2017-03-24T21:45:26.079Z,7.39
2017-03-24T21:46:08.980Z,7.42
2017-03-24T21:46:49.658Z,7.4
2017-03-24T21:47:30.956Z,7.39
2017-03-24T21:48:11.961Z,7.4
2017-03-24T21:48:52.868Z,7.4
2017-03-24T21:49:33.399Z,7.38
2017-03-24T21:50:14.093Z,7.35
2017-03-24T21:50:54.786Z,7.36
2017-03-24T21:51:35.349Z,7.4
2017-03-24T21:52:17.034Z,7.39
2017-03-24T21:52:57.728Z,7.36
2017-03-24T21:53:38.417Z,7.38
2017-03-24T21:54:19.008Z,7.4
2017-03-24T21:54:59.648Z,7.38
2017-03-24T21:55:41.363Z,7.43
2017-03-24T21:56:22.056Z,7.4
2017-03-24T21:57:02.629Z,7.5
2017-03-24T21:57:43.285Z,7.45
2017-03-24T21:58:23.967Z,7.38
2017-03-24T21:59:04.663Z,7.36
2017-03-24T21:59:45.252Z,7.4
2017-03-24T22:00:25.898Z,7.33
2017-03-24T22:01:06.585Z,7.29
2017-03-24T22:01:47.201Z,7.32
2017-03-24T22:02:27.850Z,7.35
2017-03-24T22:03:08.521Z,7.31
2017-03-24T22:03:49.187Z,7.33
2017-03-24T22:04:29.801Z,7.33
2017-03-24T22:05:10.472Z,7.32
2017-03-24T22:05:51.109Z,7.31
2017-03-24T22:06:31.804Z,7.33
2017-03-24T22:07:12.513Z,7.29
2017-03-24T22:07:53.102Z,7.28
2017-03-24T22:08:33.716Z,7.33
2017-03-24T22:09:14.455Z,7.21
2017-03-24T22:09:55.115Z,7.2
2017-03-24T22:10:35.703Z,7.18
2017-03-24T22:11:16.346Z,7.21
2017-03-24T22:11:57.031Z,7.23
2017-03-24T22:12:37.727Z,7.17
2017-03-24T22:13:18.309Z,7.07
2017-03-24T22:13:58.964Z,7.13
2017-03-24T22:14:39.642Z,7.13
2017-03-24T22:15:20.390Z,7.15
2017-03-24T22:16:00.961Z,6.96
2017-03-24T22:16:41.679Z,6.99
2017-03-24T22:17:22.394Z,7.14
2017-03-24T22:18:02.990Z,6.97
2017-03-24T22:18:43.622Z,7.05
2017-03-24T22:19:24.256Z,7.03
2017-03-24T22:20:04.824Z,7.11
2017-03-24T22:20:45.496Z,7
2017-03-24T22:21:26.221Z,6.97
2017-03-24T22:22:07.898Z,6.97
2017-03-24T22:22:49.573Z,6.97
2017-03-24T22:23:30.230Z,7.02
2017-03-24T22:24:10.880Z,6.87
2017-03-24T22:24:51.485Z,6.93
2017-03-24T22:25:32.182Z,6.92
2017-03-24T22:26:12.839Z,6.87
2017-03-24T22:26:53.486Z,6.93
2017-03-24T22:27:34.140Z,6.85
2017-03-24T22:28:14.797Z,6.84
2017-03-24T22:28:55.451Z,6.88
2017-03-24T22:29:36.099Z,6.84
2017-03-24T22:30:16.750Z,6.92
2017-03-24T22:30:58.435Z,6.93
2017-03-24T22:31:39.197Z,6.82
2017-03-24T22:32:19.844Z,6.75
2017-03-24T22:33:00.483Z,6.74
2017-03-24T22:33:41.147Z,6.74
2017-03-24T22:34:21.808Z,6.77
2017-03-24T22:35:02.453Z,6.69
2017-03-24T22:35:43.211Z,6.67
2017-03-24T22:36:23.865Z,6.67
2017-03-24T22:37:04.513Z,6.6
2017-03-24T22:37:45.167Z,6.75
2017-03-24T22:38:25.822Z,6.64
2017-03-24T22:39:06.472Z,6.62
2017-03-24T22:39:47.139Z,6.6
2017-03-24T22:40:27.778Z,6.66
2017-03-24T22:41:08.352Z,6.59
2017-03-24T22:41:49.028Z,6.54
2017-03-24T22:42:29.659Z,6.62
2017-03-24T22:43:10.295Z,6.56
2017-03-24T22:43:50.965Z,6.62
2017-03-24T22:44:31.618Z,6.6
2017-03-24T22:45:12.273Z,6.57
2017-03-24T22:45:52.917Z,6.62
2017-03-24T22:46:33.604Z,6.54
2017-03-24T22:47:14.258Z,6.52
2017-03-24T22:47:54.954Z,6.59
2017-03-24T22:48:35.500Z,6.57
2017-03-24T22:49:16.189Z,6.54
2017-03-24T22:49:56.762Z,6.57
2017-03-24T22:50:37.524Z,6.6
2017-03-24T22:51:18.106Z,6.56
2017-03-24T22:51:58.691Z,6.6
2017-03-24T22:52:40.374Z,6.54
2017-03-24T22:53:22.065Z,6.49
2017-03-24T22:54:02.699Z,6.54
2017-03-24T22:54:43.387Z,6.51
2017-03-24T22:55:24.010Z,6.48
2017-03-24T22:56:04.666Z,6.54
2017-03-24T22:56:45.241Z,6.49
2017-03-24T22:57:25.840Z,6.45
2017-03-24T22:58:06.421Z,6.41
2017-03-24T22:58:47.056Z,6.38
2017-03-24T22:59:27.650Z,6.44
2017-03-24T23:00:08.247Z,6.38
2017-03-24T23:00:48.836Z,6.38
2017-03-24T23:01:29.457Z,6.36
2017-03-24T23:02:10.129Z,6.39
2017-03-24T23:02:50.780Z,6.42
2017-03-24T23:03:31.454Z,6.35
2017-03-24T23:04:12.091Z,6.36
2017-03-24T23:04:52.740Z,6.36
2017-03-24T23:05:33.387Z,6.42
2017-03-24T23:06:14.048Z,6.35
2017-03-24T23:06:54.629Z,6.35
2017-03-24T23:07:35.237Z,6.35
2017-03-24T23:08:15.808Z,6.33
2017-03-24T23:08:56.499Z,6.31
2017-03-24T23:09:37.136Z,6.26
2017-03-24T23:10:18.759Z,6.2
2017-03-24T23:10:59.332Z,6.27
2017-03-24T23:11:39.990Z,6.2
2017-03-24T23:12:21.651Z,6.27
2017-03-24T23:13:02.320Z,6.22
2017-03-24T23:13:42.968Z,6.27
2017-03-24T23:14:23.634Z,6.22
2017-03-24T23:15:04.308Z,6.22
2017-03-24T23:15:44.923Z,6.22
2017-03-24T23:16:25.521Z,6.22
2017-03-24T23:17:06.109Z,6.26
2017-03-24T23:17:46.697Z,6.19
2017-03-24T23:18:27.371Z,6.26
2017-03-24T23:19:08.018Z,6.19
2017-03-24T23:19:48.620Z,6.09
2017-03-24T23:20:29.187Z,6.14
2017-03-24T23:21:09.845Z,6.17
2017-03-24T23:21:50.529Z,6.08
2017-03-24T23:22:31.123Z,6.14
2017-03-24T23:23:11.696Z,6.11
2017-03-24T23:23:52.350Z,6.16
2017-03-24T23:24:33.042Z,6.17
2017-03-24T23:25:13.637Z,6.17
2017-03-24T23:25:54.224Z,6.2
2017-03-24T23:26:34.870Z,6.24
2017-03-24T23:27:15.516Z,6.24
2017-03-24T23:27:56.154Z,6.17
2017-03-24T23:28:36.825Z,6.27
2017-03-24T23:29:18.493Z,6.19
2017-03-24T23:29:59.147Z,6.24
2017-03-24T23:30:40.824Z,6.3
2017-03-24T23:31:21.494Z,6.27
2017-03-24T23:32:02.182Z,6.38
2017-03-24T23:32:42.760Z,6.35
2017-03-24T23:33:23.320Z,6.41
2017-03-24T23:34:03.993Z,6.36
2017-03-24T23:34:44.681Z,6.39
2017-03-24T23:35:25.273Z,6.52
2017-03-24T23:36:05.849Z,6.51
2017-03-24T23:36:47.569Z,6.51
2017-03-24T23:37:28.215Z,6.45
2017-03-24T23:38:08.811Z,6.39
2017-03-24T23:38:49.405Z,6.35
2017-03-24T23:39:30.028Z,6.33
2017-03-24T23:40:10.629Z,6.38
2017-03-24T23:40:51.214Z,6.41
2017-03-24T23:41:31.781Z,6.38
2017-03-24T23:42:13.457Z,6.45
2017-03-24T23:42:55.120Z,6.41
2017-03-24T23:43:35.685Z,6.38
2017-03-24T23:44:16.339Z,6.41
2017-03-24T23:44:56.977Z,6.38
2017-03-24T23:45:37.563Z,6.35
2017-03-24T23:46:18.194Z,6.41
2017-03-24T23:46:58.820Z,6.38
2017-03-24T23:47:39.485Z,6.36
2017-03-24T23:48:20.060Z,6.2
2017-03-24T23:49:00.703Z,6.2
2017-03-24T23:49:41.307Z,6.35
2017-03-24T23:50:21.992Z,6.3
2017-03-24T23:51:02.561Z,6.31
2017-03-24T23:51:43.232Z,6.2
2017-03-24T23:52:23.901Z,6.28
2017-03-24T23:53:04.549Z,6.26
2017-03-24T23:53:45.069Z,6.24
2017-03-24T23:54:26.819Z,6.2
2017-03-24T23:55:07.396Z,6.17
2017-03-24T23:55:48.038Z,6.19
2017-03-24T23:56:28.612Z,6.19
2017-03-24T23:57:09.256Z,6.11
2017-03-24T23:57:49.860Z,6.09
2017-03-24T23:58:30.444Z,6.11
2017-03-24T23:59:11.012Z,6.17
2017-03-24T23:59:51.665Z,6.09
